sensor_id;sensor_type;location;lat;lon;timestamp;P1;durP1;ratioP1;P2;durP2;ratioP2
59338;SDS011;45117;50.960;5.500;2022-09-01T00:01:33;2.65;;;1.48;;
59338;SDS011;45117;50.960;5.500;2022-09-01T00:04:01;4.95;;;1.35;;
59338;SDS011;45117;50.960;5.500;2022-09-01T00:06:29;3.80;;;1.42;;
59338;SDS011;45117;50.960;5.500;2022-09-01T00:08:57;3.67;;;1.27;;
59338;SDS011;45117;50.960;5.500;2022-09-01T00:11:27;3.70;;;1.45;;
59338;SDS011;45117;50.960;5.500;2022-09-01T00:13:55;5.68;;;1.60;;
59338;SDS011;45117;50.960;5.500;2022-09-01T00:16:22;3.08;;;1.30;;
59338;SDS011;45117;50.960;5.500;2022-09-01T00:18:50;2.45;;;1.30;;
59338;SDS011;45117;50.960;5.500;2022-09-01T00:21:19;2.28;;;1.30;;
59338;SDS011;45117;50.960;5.500;2022-09-01T00:23:48;2.05;;;1.25;;
59338;SDS011;45117;50.960;5.500;2022-09-01T00:26:14;4.90;;;1.40;;
59338;SDS011;45117;50.960;5.500;2022-09-01T00:28:42;1.80;;;1.15;;
59338;SDS011;45117;50.960;5.500;2022-09-01T00:31:09;2.92;;;1.40;;
59338;SDS011;45117;50.960;5.500;2022-09-01T00:33:36;3.42;;;1.25;;
59338;SDS011;45117;50.960;5.500;2022-09-01T00:36:03;2.80;;;1.23;;
59338;SDS011;45117;50.960;5.500;2022-09-01T00:38:30;2.13;;;1.25;;
59338;SDS011;45117;50.960;5.500;2022-09-01T00:40:57;1.90;;;0.98;;
59338;SDS011;45117;50.960;5.500;2022-09-01T00:43:34;3.45;;;1.20;;
59338;SDS011;45117;50.960;5.500;2022-09-01T00:46:05;3.20;;;1.35;;
59338;SDS011;45117;50.960;5.500;2022-09-01T00:48:33;3.50;;;1.20;;
59338;SDS011;45117;50.960;5.500;2022-09-01T00:51:00;2.85;;;1.25;;
59338;SDS011;45117;50.960;5.500;2022-09-01T00:53:28;2.17;;;1.27;;
59338;SDS011;45117;50.960;5.500;2022-09-01T00:55:54;2.97;;;1.20;;
59338;SDS011;45117;50.960;5.500;2022-09-01T00:58:21;2.15;;;1.30;;
59338;SDS011;45117;50.960;5.500;2022-09-01T01:00:48;4.00;;;1.55;;
59338;SDS011;45117;50.960;5.500;2022-09-01T01:03:18;3.88;;;1.27;;
59338;SDS011;45117;50.960;5.500;2022-09-01T01:05:45;1.55;;;1.10;;
59338;SDS011;45117;50.960;5.500;2022-09-01T01:08:18;2.20;;;1.23;;
59338;SDS011;45117;50.960;5.500;2022-09-01T01:10:51;3.13;;;1.38;;
59338;SDS011;45117;50.960;5.500;2022-09-01T01:13:18;2.15;;;1.17;;
59338;SDS011;45117;50.960;5.500;2022-09-01T01:15:46;3.88;;;1.42;;
59338;SDS011;45117;50.960;5.500;2022-09-01T01:18:13;3.10;;;1.17;;
59338;SDS011;45117;50.960;5.500;2022-09-01T01:20:41;4.50;;;1.35;;
59338;SDS011;45117;50.960;5.500;2022-09-01T01:23:28;1.83;;;1.20;;
59338;SDS011;45117;50.960;5.500;2022-09-01T01:26:03;4.75;;;1.50;;
59338;SDS011;45117;50.960;5.500;2022-09-01T01:28:31;2.72;;;1.23;;
59338;SDS011;45117;50.960;5.500;2022-09-01T01:31:02;4.90;;;1.13;;
59338;SDS011;45117;50.960;5.500;2022-09-01T01:33:36;3.10;;;1.30;;
59338;SDS011;45117;50.960;5.500;2022-09-01T01:36:09;4.68;;;1.60;;
59338;SDS011;45117;50.960;5.500;2022-09-01T01:38:37;3.22;;;1.33;;
59338;SDS011;45117;50.960;5.500;2022-09-01T01:41:08;4.15;;;1.50;;
59338;SDS011;45117;50.960;5.500;2022-09-01T01:43:35;2.53;;;1.35;;
59338;SDS011;45117;50.960;5.500;2022-09-01T01:46:03;4.10;;;1.20;;
59338;SDS011;45117;50.960;5.500;2022-09-01T01:48:32;4.47;;;1.38;;
59338;SDS011;45117;50.960;5.500;2022-09-01T01:51:01;3.17;;;1.30;;
59338;SDS011;45117;50.960;5.500;2022-09-01T01:53:29;4.35;;;1.25;;
59338;SDS011;45117;50.960;5.500;2022-09-01T01:55:57;5.93;;;1.48;;
59338;SDS011;45117;50.960;5.500;2022-09-01T01:58:26;6.38;;;1.40;;
59338;SDS011;45117;50.960;5.500;2022-09-01T02:00:55;3.42;;;1.25;;
59338;SDS011;45117;50.960;5.500;2022-09-01T02:03:23;3.70;;;1.30;;
59338;SDS011;45117;50.960;5.500;2022-09-01T02:05:53;3.55;;;1.23;;
59338;SDS011;45117;50.960;5.500;2022-09-01T02:08:22;3.78;;;1.33;;
59338;SDS011;45117;50.960;5.500;2022-09-01T02:10:51;3.42;;;1.25;;
59338;SDS011;45117;50.960;5.500;2022-09-01T02:13:20;5.90;;;1.73;;
59338;SDS011;45117;50.960;5.500;2022-09-01T02:15:51;3.97;;;1.45;;
59338;SDS011;45117;50.960;5.500;2022-09-01T02:18:20;2.70;;;1.40;;
59338;SDS011;45117;50.960;5.500;2022-09-01T02:20:49;1.83;;;1.27;;
59338;SDS011;45117;50.960;5.500;2022-09-01T02:23:17;5.75;;;1.73;;
59338;SDS011;45117;50.960;5.500;2022-09-01T02:25:49;2.10;;;1.25;;
59338;SDS011;45117;50.960;5.500;2022-09-01T02:28:17;4.15;;;1.45;;
59338;SDS011;45117;50.960;5.500;2022-09-01T02:30:45;5.13;;;1.55;;
59338;SDS011;45117;50.960;5.500;2022-09-01T02:33:18;4.97;;;1.65;;
59338;SDS011;45117;50.960;5.500;2022-09-01T02:35:45;5.18;;;1.50;;
59338;SDS011;45117;50.960;5.500;2022-09-01T02:38:12;3.38;;;1.30;;
59338;SDS011;45117;50.960;5.500;2022-09-01T02:40:39;3.38;;;1.50;;
59338;SDS011;45117;50.960;5.500;2022-09-01T02:43:09;2.85;;;1.20;;
59338;SDS011;45117;50.960;5.500;2022-09-01T02:45:37;5.30;;;1.75;;
59338;SDS011;45117;50.960;5.500;2022-09-01T02:48:08;1.92;;;1.40;;
59338;SDS011;45117;50.960;5.500;2022-09-01T02:50:37;4.82;;;1.70;;
59338;SDS011;45117;50.960;5.500;2022-09-01T02:53:05;5.97;;;1.48;;
59338;SDS011;45117;50.960;5.500;2022-09-01T02:55:33;3.17;;;1.63;;
59338;SDS011;45117;50.960;5.500;2022-09-01T02:58:00;4.72;;;1.73;;
59338;SDS011;45117;50.960;5.500;2022-09-01T03:00:27;2.60;;;1.55;;
59338;SDS011;45117;50.960;5.500;2022-09-01T03:02:55;4.10;;;1.60;;
59338;SDS011;45117;50.960;5.500;2022-09-01T03:05:24;4.53;;;1.55;;
59338;SDS011;45117;50.960;5.500;2022-09-01T03:07:56;2.47;;;1.60;;
59338;SDS011;45117;50.960;5.500;2022-09-01T03:10:24;3.75;;;1.40;;
59338;SDS011;45117;50.960;5.500;2022-09-01T03:12:57;2.50;;;1.38;;
59338;SDS011;45117;50.960;5.500;2022-09-01T03:15:25;4.80;;;1.60;;
59338;SDS011;45117;50.960;5.500;2022-09-01T03:17:52;4.18;;;1.55;;
59338;SDS011;45117;50.960;5.500;2022-09-01T03:20:18;3.80;;;1.67;;
59338;SDS011;45117;50.960;5.500;2022-09-01T03:22:46;2.10;;;1.42;;
59338;SDS011;45117;50.960;5.500;2022-09-01T03:25:16;3.83;;;1.70;;
59338;SDS011;45117;50.960;5.500;2022-09-01T03:27:44;4.32;;;1.50;;
59338;SDS011;45117;50.960;5.500;2022-09-01T03:30:11;5.03;;;1.58;;
59338;SDS011;45117;50.960;5.500;2022-09-01T03:32:39;2.80;;;1.58;;
59338;SDS011;45117;50.960;5.500;2022-09-01T03:35:06;3.28;;;1.77;;
59338;SDS011;45117;50.960;5.500;2022-09-01T03:37:34;3.92;;;1.80;;
59338;SDS011;45117;50.960;5.500;2022-09-01T03:40:01;3.45;;;2.15;;
59338;SDS011;45117;50.960;5.500;2022-09-01T03:42:30;3.55;;;2.13;;
59338;SDS011;45117;50.960;5.500;2022-09-01T03:44:57;4.68;;;1.92;;
59338;SDS011;45117;50.960;5.500;2022-09-01T03:47:23;5.53;;;2.28;;
59338;SDS011;45117;50.960;5.500;2022-09-01T03:49:51;2.38;;;1.60;;
59338;SDS011;45117;50.960;5.500;2022-09-01T03:52:19;5.15;;;2.08;;
59338;SDS011;45117;50.960;5.500;2022-09-01T03:54:54;4.78;;;2.10;;
59338;SDS011;45117;50.960;5.500;2022-09-01T03:57:21;3.38;;;1.90;;
59338;SDS011;45117;50.960;5.500;2022-09-01T03:59:49;4.88;;;2.17;;
59338;SDS011;45117;50.960;5.500;2022-09-01T04:02:15;2.88;;;1.75;;
59338;SDS011;45117;50.960;5.500;2022-09-01T04:04:42;2.80;;;1.60;;
59338;SDS011;45117;50.960;5.500;2022-09-01T04:07:08;4.13;;;1.80;;
59338;SDS011;45117;50.960;5.500;2022-09-01T04:09:35;5.47;;;2.00;;
59338;SDS011;45117;50.960;5.500;2022-09-01T04:12:02;4.40;;;2.30;;
59338;SDS011;45117;50.960;5.500;2022-09-01T04:14:30;4.22;;;2.08;;
59338;SDS011;45117;50.960;5.500;2022-09-01T04:16:58;3.47;;;2.10;;
59338;SDS011;45117;50.960;5.500;2022-09-01T04:19:56;2.88;;;1.67;;
59338;SDS011;45117;50.960;5.500;2022-09-01T04:22:23;4.82;;;2.05;;
59338;SDS011;45117;50.960;5.500;2022-09-01T04:24:55;5.15;;;2.17;;
59338;SDS011;45117;50.960;5.500;2022-09-01T04:27:23;4.38;;;2.30;;
59338;SDS011;45117;50.960;5.500;2022-09-01T04:29:51;3.78;;;2.20;;
59338;SDS011;45117;50.960;5.500;2022-09-01T04:32:19;4.82;;;2.40;;
59338;SDS011;45117;50.960;5.500;2022-09-01T04:34:46;6.85;;;2.47;;
59338;SDS011;45117;50.960;5.500;2022-09-01T04:37:13;2.90;;;1.95;;
59338;SDS011;45117;50.960;5.500;2022-09-01T04:39:46;3.58;;;2.20;;
59338;SDS011;45117;50.960;5.500;2022-09-01T04:42:16;5.30;;;2.30;;
59338;SDS011;45117;50.960;5.500;2022-09-01T04:44:43;5.15;;;2.42;;
59338;SDS011;45117;50.960;5.500;2022-09-01T04:47:10;6.00;;;2.80;;
59338;SDS011;45117;50.960;5.500;2022-09-01T04:49:45;5.22;;;2.45;;
59338;SDS011;45117;50.960;5.500;2022-09-01T04:52:13;4.18;;;2.05;;
59338;SDS011;45117;50.960;5.500;2022-09-01T04:54:39;5.70;;;2.60;;
59338;SDS011;45117;50.960;5.500;2022-09-01T04:57:08;5.57;;;2.60;;
59338;SDS011;45117;50.960;5.500;2022-09-01T04:59:35;5.82;;;2.88;;
59338;SDS011;45117;50.960;5.500;2022-09-01T05:02:01;5.15;;;2.85;;
59338;SDS011;45117;50.960;5.500;2022-09-01T05:04:31;5.18;;;2.75;;
59338;SDS011;45117;50.960;5.500;2022-09-01T05:07:00;6.28;;;3.08;;
59338;SDS011;45117;50.960;5.500;2022-09-01T05:09:30;7.55;;;3.40;;
59338;SDS011;45117;50.960;5.500;2022-09-01T05:11:59;6.32;;;2.63;;
59338;SDS011;45117;50.960;5.500;2022-09-01T05:14:35;5.60;;;2.92;;
59338;SDS011;45117;50.960;5.500;2022-09-01T05:17:01;6.90;;;2.92;;
59338;SDS011;45117;50.960;5.500;2022-09-01T05:19:34;4.00;;;2.65;;
59338;SDS011;45117;50.960;5.500;2022-09-01T05:22:02;7.20;;;2.80;;
59338;SDS011;45117;50.960;5.500;2022-09-01T05:24:34;6.88;;;3.13;;
59338;SDS011;45117;50.960;5.500;2022-09-01T05:27:02;5.43;;;2.97;;
59338;SDS011;45117;50.960;5.500;2022-09-01T05:29:29;6.30;;;2.90;;
59338;SDS011;45117;50.960;5.500;2022-09-01T05:31:56;5.45;;;2.70;;
59338;SDS011;45117;50.960;5.500;2022-09-01T05:34:23;4.72;;;2.90;;
59338;SDS011;45117;50.960;5.500;2022-09-01T05:36:51;5.53;;;2.95;;
59338;SDS011;45117;50.960;5.500;2022-09-01T05:39:22;5.00;;;2.42;;
59338;SDS011;45117;50.960;5.500;2022-09-01T05:41:50;5.70;;;2.45;;
59338;SDS011;45117;50.960;5.500;2022-09-01T05:44:17;4.68;;;2.60;;
59338;SDS011;45117;50.960;5.500;2022-09-01T05:46:46;7.57;;;2.97;;
59338;SDS011;45117;50.960;5.500;2022-09-01T05:49:13;5.53;;;2.70;;
59338;SDS011;45117;50.960;5.500;2022-09-01T05:51:43;4.15;;;2.22;;
59338;SDS011;45117;50.960;5.500;2022-09-01T05:54:14;4.90;;;2.20;;
59338;SDS011;45117;50.960;5.500;2022-09-01T05:56:44;3.28;;;2.10;;
59338;SDS011;45117;50.960;5.500;2022-09-01T05:59:10;5.65;;;2.40;;
59338;SDS011;45117;50.960;5.500;2022-09-01T06:01:39;3.60;;;2.08;;
59338;SDS011;45117;50.960;5.500;2022-09-01T06:04:06;4.20;;;2.38;;
59338;SDS011;45117;50.960;5.500;2022-09-01T06:06:36;4.03;;;1.65;;
59338;SDS011;45117;50.960;5.500;2022-09-01T06:09:08;5.07;;;2.60;;
59338;SDS011;45117;50.960;5.500;2022-09-01T06:11:36;4.05;;;2.17;;
59338;SDS011;45117;50.960;5.500;2022-09-01T06:14:04;4.32;;;2.50;;
59338;SDS011;45117;50.960;5.500;2022-09-01T06:16:35;3.63;;;2.30;;
59338;SDS011;45117;50.960;5.500;2022-09-01T06:19:02;5.68;;;2.38;;
59338;SDS011;45117;50.960;5.500;2022-09-01T06:21:29;4.70;;;2.40;;
59338;SDS011;45117;50.960;5.500;2022-09-01T06:23:56;5.22;;;2.30;;
59338;SDS011;45117;50.960;5.500;2022-09-01T06:26:25;5.70;;;2.70;;
59338;SDS011;45117;50.960;5.500;2022-09-01T06:28:53;4.55;;;2.53;;
59338;SDS011;45117;50.960;5.500;2022-09-01T06:31:22;5.80;;;2.60;;
59338;SDS011;45117;50.960;5.500;2022-09-01T06:33:49;4.43;;;2.65;;
59338;SDS011;45117;50.960;5.500;2022-09-01T06:36:17;5.65;;;2.42;;
59338;SDS011;45117;50.960;5.500;2022-09-01T06:38:45;4.90;;;2.50;;
59338;SDS011;45117;50.960;5.500;2022-09-01T06:41:12;6.00;;;2.65;;
59338;SDS011;45117;50.960;5.500;2022-09-01T06:43:38;4.40;;;2.30;;
59338;SDS011;45117;50.960;5.500;2022-09-01T06:46:06;5.05;;;2.38;;
59338;SDS011;45117;50.960;5.500;2022-09-01T06:48:35;4.18;;;2.35;;
59338;SDS011;45117;50.960;5.500;2022-09-01T06:51:02;5.32;;;2.60;;
59338;SDS011;45117;50.960;5.500;2022-09-01T06:53:29;4.82;;;2.47;;
59338;SDS011;45117;50.960;5.500;2022-09-01T06:55:58;4.93;;;2.30;;
59338;SDS011;45117;50.960;5.500;2022-09-01T06:58:26;6.00;;;2.88;;
59338;SDS011;45117;50.960;5.500;2022-09-01T07:00:53;4.57;;;2.75;;
59338;SDS011;45117;50.960;5.500;2022-09-01T07:03:20;3.95;;;2.75;;
59338;SDS011;45117;50.960;5.500;2022-09-01T07:05:49;4.05;;;2.45;;
59338;SDS011;45117;50.960;5.500;2022-09-01T07:08:17;5.55;;;2.60;;
59338;SDS011;45117;50.960;5.500;2022-09-01T07:10:46;4.95;;;2.42;;
59338;SDS011;45117;50.960;5.500;2022-09-01T07:13:15;4.72;;;2.30;;
59338;SDS011;45117;50.960;5.500;2022-09-01T07:15:47;4.47;;;2.40;;
59338;SDS011;45117;50.960;5.500;2022-09-01T07:18:14;6.35;;;2.25;;
59338;SDS011;45117;50.960;5.500;2022-09-01T07:20:42;5.22;;;2.65;;
59338;SDS011;45117;50.960;5.500;2022-09-01T07:23:12;5.00;;;2.58;;
59338;SDS011;45117;50.960;5.500;2022-09-01T07:25:42;6.97;;;2.70;;
59338;SDS011;45117;50.960;5.500;2022-09-01T07:28:09;6.03;;;2.50;;
59338;SDS011;45117;50.960;5.500;2022-09-01T07:30:39;5.80;;;2.50;;
59338;SDS011;45117;50.960;5.500;2022-09-01T07:33:07;3.35;;;2.58;;
59338;SDS011;45117;50.960;5.500;2022-09-01T07:35:36;4.38;;;2.53;;
59338;SDS011;45117;50.960;5.500;2022-09-01T07:38:03;9.68;;;2.78;;
59338;SDS011;45117;50.960;5.500;2022-09-01T07:40:33;6.18;;;2.78;;
59338;SDS011;45117;50.960;5.500;2022-09-01T07:43:06;3.92;;;2.33;;
59338;SDS011;45117;50.960;5.500;2022-09-01T07:45:34;5.13;;;2.92;;
59338;SDS011;45117;50.960;5.500;2022-09-01T07:48:04;4.50;;;2.65;;
59338;SDS011;45117;50.960;5.500;2022-09-01T07:50:32;3.63;;;2.53;;
59338;SDS011;45117;50.960;5.500;2022-09-01T07:52:59;3.72;;;2.28;;
59338;SDS011;45117;50.960;5.500;2022-09-01T07:55:25;3.40;;;2.30;;
59338;SDS011;45117;50.960;5.500;2022-09-01T07:57:54;3.75;;;2.15;;
59338;SDS011;45117;50.960;5.500;2022-09-01T08:00:21;5.78;;;2.70;;
59338;SDS011;45117;50.960;5.500;2022-09-01T08:02:48;4.85;;;2.40;;
59338;SDS011;45117;50.960;5.500;2022-09-01T08:05:16;3.45;;;2.00;;
59338;SDS011;45117;50.960;5.500;2022-09-01T08:07:46;7.43;;;2.00;;
59338;SDS011;45117;50.960;5.500;2022-09-01T08:10:13;4.95;;;2.67;;
59338;SDS011;45117;50.960;5.500;2022-09-01T08:12:40;4.07;;;2.30;;
59338;SDS011;45117;50.960;5.500;2022-09-01T08:15:09;7.57;;;2.35;;
59338;SDS011;45117;50.960;5.500;2022-09-01T08:17:37;4.60;;;2.50;;
59338;SDS011;45117;50.960;5.500;2022-09-01T08:20:04;2.55;;;2.00;;
59338;SDS011;45117;50.960;5.500;2022-09-01T08:22:33;4.43;;;2.38;;
59338;SDS011;45117;50.960;5.500;2022-09-01T08:25:01;3.25;;;2.15;;
59338;SDS011;45117;50.960;5.500;2022-09-01T08:27:28;6.80;;;2.47;;
59338;SDS011;45117;50.960;5.500;2022-09-01T08:29:54;4.72;;;2.20;;
59338;SDS011;45117;50.960;5.500;2022-09-01T08:32:22;6.07;;;2.60;;
59338;SDS011;45117;50.960;5.500;2022-09-01T08:34:49;2.80;;;2.05;;
59338;SDS011;45117;50.960;5.500;2022-09-01T08:37:15;7.50;;;2.33;;
59338;SDS011;45117;50.960;5.500;2022-09-01T08:39:42;4.55;;;2.17;;
59338;SDS011;45117;50.960;5.500;2022-09-01T08:42:12;3.45;;;1.92;;
59338;SDS011;45117;50.960;5.500;2022-09-01T08:44:48;3.03;;;2.20;;
59338;SDS011;45117;50.960;5.500;2022-09-01T08:47:22;4.03;;;2.20;;
59338;SDS011;45117;50.960;5.500;2022-09-01T08:49:49;4.75;;;2.10;;
59338;SDS011;45117;50.960;5.500;2022-09-01T08:52:18;5.47;;;2.08;;
59338;SDS011;45117;50.960;5.500;2022-09-01T08:54:52;6.32;;;2.25;;
59338;SDS011;45117;50.960;5.500;2022-09-01T08:57:23;4.60;;;2.05;;
59338;SDS011;45117;50.960;5.500;2022-09-01T08:59:54;4.07;;;2.08;;
59338;SDS011;45117;50.960;5.500;2022-09-01T09:02:29;4.43;;;1.83;;
59338;SDS011;45117;50.960;5.500;2022-09-01T09:05:06;4.78;;;1.70;;
59338;SDS011;45117;50.960;5.500;2022-09-01T09:07:53;3.65;;;1.88;;
59338;SDS011;45117;50.960;5.500;2022-09-01T09:10:34;3.45;;;1.90;;
59338;SDS011;45117;50.960;5.500;2022-09-01T09:13:06;4.50;;;2.15;;
59338;SDS011;45117;50.960;5.500;2022-09-01T09:15:42;2.97;;;1.70;;
59338;SDS011;45117;50.960;5.500;2022-09-01T09:18:15;2.55;;;1.58;;
59338;SDS011;45117;50.960;5.500;2022-09-01T09:20:45;3.90;;;1.80;;
59338;SDS011;45117;50.960;5.500;2022-09-01T09:23:15;5.53;;;1.90;;
59338;SDS011;45117;50.960;5.500;2022-09-01T09:25:46;3.35;;;1.73;;
59338;SDS011;45117;50.960;5.500;2022-09-01T09:28:14;3.78;;;1.92;;
59338;SDS011;45117;50.960;5.500;2022-09-01T09:30:41;4.22;;;1.55;;
59338;SDS011;45117;50.960;5.500;2022-09-01T09:33:08;4.22;;;1.58;;
59338;SDS011;45117;50.960;5.500;2022-09-01T09:35:38;2.65;;;1.40;;
59338;SDS011;45117;50.960;5.500;2022-09-01T09:38:16;1.88;;;1.40;;
59338;SDS011;45117;50.960;5.500;2022-09-01T09:40:57;2.88;;;1.35;;
59338;SDS011;45117;50.960;5.500;2022-09-01T09:43:25;2.95;;;1.40;;
59338;SDS011;45117;50.960;5.500;2022-09-01T09:46:19;2.15;;;1.42;;
59338;SDS011;45117;50.960;5.500;2022-09-01T09:51:42;2.08;;;1.27;;
59338;SDS011;45117;50.960;5.500;2022-09-01T09:54:14;4.68;;;1.80;;
59338;SDS011;45117;50.960;5.500;2022-09-01T09:56:44;3.50;;;1.70;;
59338;SDS011;45117;50.960;5.500;2022-09-01T09:59:15;2.78;;;1.58;;
59338;SDS011;45117;50.960;5.500;2022-09-01T10:01:46;3.92;;;1.67;;
59338;SDS011;45117;50.960;5.500;2022-09-01T10:04:36;2.72;;;1.67;;
59338;SDS011;45117;50.960;5.500;2022-09-01T10:07:25;2.85;;;1.38;;
59338;SDS011;45117;50.960;5.500;2022-09-01T10:09:55;2.92;;;1.33;;
59338;SDS011;45117;50.960;5.500;2022-09-01T10:12:24;4.13;;;1.40;;
59338;SDS011;45117;50.960;5.500;2022-09-01T10:14:52;3.03;;;1.30;;
59338;SDS011;45117;50.960;5.500;2022-09-01T10:17:23;3.53;;;1.50;;
59338;SDS011;45117;50.960;5.500;2022-09-01T10:19:55;2.63;;;1.50;;
59338;SDS011;45117;50.960;5.500;2022-09-01T10:22:30;2.45;;;1.27;;
59338;SDS011;45117;50.960;5.500;2022-09-01T10:24:58;2.05;;;1.30;;
59338;SDS011;45117;50.960;5.500;2022-09-01T10:27:26;2.85;;;1.40;;
59338;SDS011;45117;50.960;5.500;2022-09-01T10:29:56;2.55;;;1.27;;
59338;SDS011;45117;50.960;5.500;2022-09-01T10:32:31;2.63;;;1.20;;
59338;SDS011;45117;50.960;5.500;2022-09-01T10:35:00;2.78;;;1.13;;
59338;SDS011;45117;50.960;5.500;2022-09-01T10:37:28;1.10;;;1.00;;
59338;SDS011;45117;50.960;5.500;2022-09-01T10:40:12;2.88;;;1.10;;
59338;SDS011;45117;50.960;5.500;2022-09-01T10:42:42;1.17;;;0.85;;
59338;SDS011;45117;50.960;5.500;2022-09-01T10:45:18;2.22;;;0.90;;
59338;SDS011;45117;50.960;5.500;2022-09-01T10:47:55;1.73;;;0.90;;
59338;SDS011;45117;50.960;5.500;2022-09-01T10:50:23;2.92;;;0.80;;
59338;SDS011;45117;50.960;5.500;2022-09-01T10:52:54;1.38;;;0.77;;
59338;SDS011;45117;50.960;5.500;2022-09-01T11:01:09;1.05;;;0.77;;
59338;SDS011;45117;50.960;5.500;2022-09-01T11:09:25;4.68;;;0.88;;
59338;SDS011;45117;50.960;5.500;2022-09-01T11:14:57;1.70;;;0.85;;
59338;SDS011;45117;50.960;5.500;2022-09-01T11:17:26;2.47;;;0.85;;
59338;SDS011;45117;50.960;5.500;2022-09-01T11:19:57;3.03;;;1.10;;
59338;SDS011;45117;50.960;5.500;2022-09-01T11:22:29;1.58;;;0.90;;
59338;SDS011;45117;50.960;5.500;2022-09-01T11:28:07;1.85;;;1.00;;
59338;SDS011;45117;50.960;5.500;2022-09-01T11:30:49;2.35;;;0.82;;
59338;SDS011;45117;50.960;5.500;2022-09-01T11:36:26;1.38;;;0.90;;
59338;SDS011;45117;50.960;5.500;2022-09-01T11:38:57;2.83;;;0.95;;
59338;SDS011;45117;50.960;5.500;2022-09-01T11:41:29;2.42;;;0.90;;
59338;SDS011;45117;50.960;5.500;2022-09-01T11:44:06;1.10;;;0.93;;
59338;SDS011;45117;50.960;5.500;2022-09-01T11:46:38;2.13;;;1.10;;
59338;SDS011;45117;50.960;5.500;2022-09-01T11:49:07;2.97;;;1.20;;
59338;SDS011;45117;50.960;5.500;2022-09-01T11:51:51;3.15;;;1.20;;
59338;SDS011;45117;50.960;5.500;2022-09-01T11:54:17;1.52;;;0.90;;
59338;SDS011;45117;50.960;5.500;2022-09-01T11:56:44;2.72;;;1.38;;
59338;SDS011;45117;50.960;5.500;2022-09-01T11:59:12;4.00;;;1.50;;
59338;SDS011;45117;50.960;5.500;2022-09-01T12:01:39;1.65;;;1.27;;
59338;SDS011;45117;50.960;5.500;2022-09-01T12:04:19;1.65;;;1.00;;
59338;SDS011;45117;50.960;5.500;2022-09-01T12:06:50;2.17;;;1.00;;
59338;SDS011;45117;50.960;5.500;2022-09-01T12:09:19;2.00;;;0.98;;
59338;SDS011;45117;50.960;5.500;2022-09-01T12:11:46;1.95;;;1.00;;
59338;SDS011;45117;50.960;5.500;2022-09-01T12:14:18;2.50;;;1.13;;
59338;SDS011;45117;50.960;5.500;2022-09-01T12:16:54;1.75;;;1.00;;
59338;SDS011;45117;50.960;5.500;2022-09-01T12:19:23;1.85;;;0.95;;
59338;SDS011;45117;50.960;5.500;2022-09-01T12:21:55;2.05;;;1.25;;
59338;SDS011;45117;50.960;5.500;2022-09-01T12:24:24;3.10;;;1.40;;
59338;SDS011;45117;50.960;5.500;2022-09-01T12:26:51;3.20;;;0.90;;
59338;SDS011;45117;50.960;5.500;2022-09-01T12:29:21;3.72;;;1.10;;
59338;SDS011;45117;50.960;5.500;2022-09-01T12:31:49;2.22;;;0.80;;
59338;SDS011;45117;50.960;5.500;2022-09-01T12:37:10;2.10;;;1.10;;
59338;SDS011;45117;50.960;5.500;2022-09-01T12:39:45;2.17;;;0.80;;
59338;SDS011;45117;50.960;5.500;2022-09-01T12:42:22;3.50;;;1.10;;
59338;SDS011;45117;50.960;5.500;2022-09-01T12:44:53;4.10;;;1.00;;
59338;SDS011;45117;50.960;5.500;2022-09-01T12:53:16;2.47;;;1.05;;
59338;SDS011;45117;50.960;5.500;2022-09-01T12:55:53;2.03;;;1.08;;
59338;SDS011;45117;50.960;5.500;2022-09-01T12:58:24;3.30;;;1.10;;
59338;SDS011;45117;50.960;5.500;2022-09-01T13:00:55;2.03;;;1.02;;
59338;SDS011;45117;50.960;5.500;2022-09-01T13:03:24;1.95;;;0.73;;
59338;SDS011;45117;50.960;5.500;2022-09-01T13:05:54;1.77;;;1.00;;
59338;SDS011;45117;50.960;5.500;2022-09-01T13:08:22;3.25;;;0.98;;
59338;SDS011;45117;50.960;5.500;2022-09-01T13:10:51;4.47;;;1.25;;
59338;SDS011;45117;50.960;5.500;2022-09-01T13:13:19;2.42;;;1.20;;
59338;SDS011;45117;50.960;5.500;2022-09-01T13:15:49;3.20;;;0.90;;
59338;SDS011;45117;50.960;5.500;2022-09-01T13:18:20;2.35;;;0.90;;
59338;SDS011;45117;50.960;5.500;2022-09-01T13:20:47;2.28;;;0.90;;
59338;SDS011;45117;50.960;5.500;2022-09-01T13:23:15;2.25;;;0.75;;
59338;SDS011;45117;50.960;5.500;2022-09-01T13:25:42;3.22;;;0.98;;
59338;SDS011;45117;50.960;5.500;2022-09-01T13:28:10;2.70;;;1.50;;
59338;SDS011;45117;50.960;5.500;2022-09-01T13:30:36;2.17;;;1.25;;
59338;SDS011;45117;50.960;5.500;2022-09-01T13:33:04;2.25;;;1.10;;
59338;SDS011;45117;50.960;5.500;2022-09-01T13:35:32;3.45;;;1.10;;
59338;SDS011;45117;50.960;5.500;2022-09-01T13:37:58;4.45;;;1.73;;
59338;SDS011;45117;50.960;5.500;2022-09-01T13:40:25;1.63;;;1.02;;
59338;SDS011;45117;50.960;5.500;2022-09-01T13:42:52;4.15;;;1.02;;
59338;SDS011;45117;50.960;5.500;2022-09-01T13:45:19;1.35;;;0.95;;
59338;SDS011;45117;50.960;5.500;2022-09-01T13:47:48;2.20;;;1.00;;
59338;SDS011;45117;50.960;5.500;2022-09-01T13:50:16;1.63;;;0.93;;
59338;SDS011;45117;50.960;5.500;2022-09-01T13:52:47;2.17;;;1.10;;
59338;SDS011;45117;50.960;5.500;2022-09-01T13:55:15;1.33;;;1.10;;
59338;SDS011;45117;50.960;5.500;2022-09-01T13:57:43;1.85;;;1.10;;
59338;SDS011;45117;50.960;5.500;2022-09-01T14:00:11;1.95;;;0.93;;
59338;SDS011;45117;50.960;5.500;2022-09-01T14:02:40;2.42;;;1.05;;
59338;SDS011;45117;50.960;5.500;2022-09-01T14:05:13;2.55;;;1.10;;
59338;SDS011;45117;50.960;5.500;2022-09-01T14:07:40;1.10;;;1.00;;
59338;SDS011;45117;50.960;5.500;2022-09-01T14:10:08;3.70;;;0.90;;
59338;SDS011;45117;50.960;5.500;2022-09-01T14:12:35;3.28;;;1.02;;
59338;SDS011;45117;50.960;5.500;2022-09-01T14:15:03;2.35;;;1.05;;
59338;SDS011;45117;50.960;5.500;2022-09-01T14:17:31;1.73;;;0.90;;
59338;SDS011;45117;50.960;5.500;2022-09-01T14:19:57;2.88;;;0.93;;
59338;SDS011;45117;50.960;5.500;2022-09-01T14:22:24;1.75;;;1.08;;
59338;SDS011;45117;50.960;5.500;2022-09-01T14:24:50;2.95;;;1.10;;
59338;SDS011;45117;50.960;5.500;2022-09-01T14:27:18;2.55;;;0.98;;
59338;SDS011;45117;50.960;5.500;2022-09-01T14:29:47;2.65;;;1.00;;
59338;SDS011;45117;50.960;5.500;2022-09-01T14:32:14;1.55;;;0.90;;
59338;SDS011;45117;50.960;5.500;2022-09-01T14:34:41;2.15;;;1.08;;
59338;SDS011;45117;50.960;5.500;2022-09-01T14:37:08;2.53;;;1.00;;
59338;SDS011;45117;50.960;5.500;2022-09-01T14:39:35;1.75;;;1.00;;
59338;SDS011;45117;50.960;5.500;2022-09-01T14:42:02;1.80;;;1.15;;
59338;SDS011;45117;50.960;5.500;2022-09-01T14:44:32;1.67;;;1.05;;
59338;SDS011;45117;50.960;5.500;2022-09-01T14:47:01;1.67;;;1.10;;
59338;SDS011;45117;50.960;5.500;2022-09-01T14:49:30;2.50;;;1.00;;
59338;SDS011;45117;50.960;5.500;2022-09-01T14:52:01;3.05;;;1.00;;
59338;SDS011;45117;50.960;5.500;2022-09-01T14:54:30;2.38;;;1.17;;
59338;SDS011;45117;50.960;5.500;2022-09-01T14:56:58;3.10;;;1.20;;
59338;SDS011;45117;50.960;5.500;2022-09-01T14:59:24;2.20;;;1.20;;
59338;SDS011;45117;50.960;5.500;2022-09-01T15:01:52;2.95;;;1.35;;
59338;SDS011;45117;50.960;5.500;2022-09-01T15:04:19;1.75;;;1.00;;
59338;SDS011;45117;50.960;5.500;2022-09-01T15:06:45;1.60;;;1.20;;
59338;SDS011;45117;50.960;5.500;2022-09-01T15:09:12;3.88;;;1.40;;
59338;SDS011;45117;50.960;5.500;2022-09-01T15:11:39;2.35;;;1.38;;
59338;SDS011;45117;50.960;5.500;2022-09-01T15:14:06;2.42;;;1.27;;
59338;SDS011;45117;50.960;5.500;2022-09-01T15:16:33;1.75;;;1.10;;
59338;SDS011;45117;50.960;5.500;2022-09-01T15:19:05;1.83;;;1.30;;
59338;SDS011;45117;50.960;5.500;2022-09-01T15:21:33;2.65;;;1.50;;
59338;SDS011;45117;50.960;5.500;2022-09-01T15:24:00;1.60;;;1.20;;
59338;SDS011;45117;50.960;5.500;2022-09-01T15:26:27;1.75;;;1.40;;
59338;SDS011;45117;50.960;5.500;2022-09-01T15:28:55;1.33;;;1.10;;
59338;SDS011;45117;50.960;5.500;2022-09-01T15:31:22;3.72;;;1.20;;
59338;SDS011;45117;50.960;5.500;2022-09-01T15:33:53;1.80;;;1.10;;